Time;durP1;ratioP1;P1;durP2;ratioP2;P2;SDS_P1;SDS_P2;PMS_P1;PMS_P2;Temp;Humidity;BMP_temperature;BMP_pressure;BME280_temperature;BME280_humidity;BME280_pressure;Samples;Min_cycle;Max_cycle;Signal;HPM_P1;HPM_P2
2022/08/07 00:02:12;;;;;;;4.77;1.80;;;15.80;99.90;;;;;;5036646;28;21037;-78
2022/08/07 00:04:38;;;;;;;4.13;2.13;;;15.70;99.90;;;;;;5034589;28;20904;-79
2022/08/07 00:07:05;;;;;;;4.77;1.93;;;15.70;99.90;;;;;;5036465;28;20512;-78
2022/08/07 00:09:32;;;;;;;3.80;2.00;;;15.70;99.90;;;;;;5036758;28;20825;-80
2022/08/07 00:11:59;;;;;;;4.73;2.07;;;15.60;99.90;;;;;;5037758;28;20532;-78
2022/08/07 00:14:29;;;;;;;5.27;2.17;;;15.60;99.90;;;;;;5036097;28;20495;-78
2022/08/07 00:16:56;;;;;;;4.20;1.87;;;15.60;99.90;;;;;;5037079;28;20890;-78
2022/08/07 00:19:23;;;;;;;4.70;2.10;;;15.50;99.90;;;;;;5037654;28;20545;-79
2022/08/07 00:21:49;;;;;;;4.00;2.20;;;15.50;99.90;;;;;;5038198;28;20562;-79
2022/08/07 00:24:16;;;;;;;3.50;1.77;;;15.50;99.90;;;;;;5035961;28;21198;-79
2022/08/07 00:26:43;;;;;;;4.10;2.00;;;15.50;99.90;;;;;;5037515;28;20462;-79
2022/08/07 00:29:10;;;;;;;4.20;2.57;;;15.50;99.90;;;;;;5076592;22;20593;-81
2022/08/07 00:31:38;;;;;;;5.10;2.10;;;15.40;99.90;;;;;;5072736;28;20454;-82
2022/08/07 00:34:05;;;;;;;3.93;2.30;;;15.40;99.90;;;;;;5066027;28;20450;-82
2022/08/07 00:36:32;;;;;;;4.20;2.20;;;15.30;99.90;;;;;;5076601;28;20535;-81
2022/08/07 00:38:59;;;;;;;3.37;2.23;;;15.30;99.90;;;;;;5077549;28;20544;-81
2022/08/07 00:41:27;;;;;;;3.53;2.13;;;15.30;99.90;;;;;;5077055;28;20494;-82
2022/08/07 00:43:54;;;;;;;5.30;2.40;;;15.30;99.90;;;;;;5075065;28;20977;-83
2022/08/07 00:46:20;;;;;;;5.30;2.67;;;15.20;99.90;;;;;;5077617;28;20545;-81
2022/08/07 00:48:49;;;;;;;3.50;2.00;;;15.20;99.90;;;;;;5060470;28;20565;-81
2022/08/07 00:51:15;;;;;;;3.60;2.10;;;15.30;99.90;;;;;;5077010;28;20487;-80
2022/08/07 00:53:42;;;;;;;7.27;2.60;;;15.20;99.90;;;;;;5076266;28;20541;-81
2022/08/07 00:56:11;;;;;;;4.10;2.60;;;15.20;99.90;;;;;;5077164;28;20453;-81
2022/08/07 00:58:41;;;;;;;5.97;2.30;;;15.10;99.90;;;;;;5077234;28;20486;-82
2022/08/07 01:01:08;;;;;;;7.10;2.53;;;15.10;99.90;;;;;;5076152;28;20542;-81
2022/08/07 01:03:35;;;;;;;3.67;2.53;;;15.10;99.90;;;;;;5076282;28;20489;-82
2022/08/07 01:06:04;;;;;;;4.53;2.57;;;15.10;99.90;;;;;;5075934;28;20481;-80
2022/08/07 01:08:31;;;;;;;4.83;2.63;;;15.10;99.90;;;;;;5076405;28;20510;-80
2022/08/07 01:10:58;;;;;;;5.80;2.80;;;15.00;99.90;;;;;;5076594;28;20467;-81
2022/08/07 01:13:25;;;;;;;4.80;2.60;;;15.00;99.90;;;;;;5075915;28;20543;-81
2022/08/07 01:15:53;;;;;;;5.43;3.17;;;15.00;99.90;;;;;;5076275;28;20494;-82
2022/08/07 01:18:20;;;;;;;4.63;2.90;;;15.00;99.90;;;;;;5076409;28;20471;-81
2022/08/07 01:20:55;;;;;;;7.37;3.00;;;15.00;99.90;;;;;;5076228;28;20456;-81
2022/08/07 01:23:24;;;;;;;5.23;3.10;;;14.90;99.90;;;;;;5075562;28;20467;-81
2022/08/07 01:25:51;;;;;;;4.43;2.70;;;14.90;99.90;;;;;;5076404;28;20537;-81
2022/08/07 01:28:17;;;;;;;4.20;2.67;;;14.80;99.90;;;;;;5076840;28;20558;-81
2022/08/07 01:30:45;;;;;;;5.50;3.07;;;14.80;99.90;;;;;;5075736;28;20457;-81
2022/08/07 01:33:12;;;;;;;3.40;2.33;;;14.80;99.90;;;;;;5074894;28;20989;-81
2022/08/07 01:35:39;;;;;;;6.20;3.37;;;14.70;99.90;;;;;;5075576;28;20903;-81
2022/08/07 01:38:07;;;;;;;3.80;2.40;;;14.70;99.90;;;;;;5076009;28;20535;-81
2022/08/07 01:40:36;;;;;;;5.00;2.63;;;14.70;99.90;;;;;;5075908;28;20525;-81
2022/08/07 01:43:03;;;;;;;4.17;2.50;;;14.70;99.90;;;;;;5075456;28;20576;-81
2022/08/07 01:45:31;;;;;;;3.87;3.20;;;14.70;99.90;;;;;;5075673;28;20654;-83
2022/08/07 01:47:59;;;;;;;9.10;3.17;;;14.70;99.90;;;;;;5075622;28;20448;-81
2022/08/07 01:50:26;;;;;;;4.13;2.37;;;14.70;99.90;;;;;;5076213;28;20536;-81
2022/08/07 01:52:57;;;;;;;3.80;2.63;;;14.60;99.90;;;;;;5075811;28;20505;-81
2022/08/07 01:55:26;;;;;;;3.60;2.50;;;14.60;99.90;;;;;;5075950;28;20556;-81
2022/08/07 01:57:58;;;;;;;3.57;2.47;;;14.60;99.90;;;;;;5074893;28;20885;-81
2022/08/07 02:00:29;;;;;;;5.30;2.90;;;14.60;99.90;;;;;;5070763;28;20955;-80
2022/08/07 02:03:00;;;;;;;4.60;2.67;;;14.60;99.90;;;;;;5059679;28;20595;-81
2022/08/07 02:05:32;;;;;;;4.27;2.50;;;14.50;99.90;;;;;;5074004;28;20450;-81
2022/08/07 02:08:02;;;;;;;2.87;2.07;;;14.50;99.90;;;;;;5075282;28;20510;-83
2022/08/07 02:10:32;;;;;;;4.47;2.63;;;14.50;99.90;;;;;;5075582;28;20458;-83
2022/08/07 02:13:02;;;;;;;3.10;2.47;;;14.50;99.90;;;;;;5075215;28;20543;-81
2022/08/07 02:15:31;;;;;;;3.73;2.70;;;14.40;99.90;;;;;;5075473;28;20516;-82
2022/08/07 02:18:00;;;;;;;3.40;1.97;;;14.40;99.90;;;;;;5075695;28;20459;-81
2022/08/07 02:20:30;;;;;;;6.97;2.60;;;14.30;99.90;;;;;;5075865;28;20507;-81
2022/08/07 02:23:00;;;;;;;3.30;2.10;;;14.30;99.90;;;;;;5075411;28;20523;-82
2022/08/07 02:25:29;;;;;;;3.97;2.10;;;14.30;99.90;;;;;;5076910;28;20515;-81
2022/08/07 02:27:58;;;;;;;2.60;1.80;;;14.30;99.90;;;;;;5077196;28;20461;-81
2022/08/07 02:30:28;;;;;;;3.97;2.27;;;14.20;99.90;;;;;;5076350;28;20845;-82
2022/08/07 02:32:56;;;;;;;4.03;2.20;;;14.20;99.90;;;;;;5075961;28;20516;-81
2022/08/07 02:35:25;;;;;;;4.40;2.23;;;14.20;99.90;;;;;;5076659;28;20482;-82
2022/08/07 02:37:54;;;;;;;3.57;2.50;;;14.20;99.90;;;;;;5076826;28;20447;-82
2022/08/07 02:40:21;;;;;;;5.60;2.47;;;14.10;99.90;;;;;;5077312;28;20546;-80
2022/08/07 02:42:48;;;;;;;3.90;2.00;;;14.10;99.90;;;;;;5077827;28;20526;-81
2022/08/07 02:45:18;;;;;;;3.83;2.30;;;14.10;99.90;;;;;;5077490;28;20466;-82
2022/08/07 02:47:48;;;;;;;4.23;2.50;;;14.00;99.90;;;;;;5077411;28;20518;-83
2022/08/07 02:50:15;;;;;;;4.70;2.40;;;14.00;99.90;;;;;;5077638;28;20510;-82
2022/08/07 02:52:53;;;;;;;3.30;2.17;;;14.00;99.90;;;;;;5078308;28;20475;-80
2022/08/07 02:55:22;;;;;;;3.80;2.00;;;14.00;99.90;;;;;;5078476;28;20452;-80
2022/08/07 02:57:50;;;;;;;4.20;2.40;;;14.00;99.90;;;;;;5077496;28;20481;-81
2022/08/07 03:00:18;;;;;;;3.57;2.33;;;14.00;99.90;;;;;;5078782;28;20495;-80
2022/08/07 03:02:49;;;;;;;3.30;2.07;;;13.90;99.90;;;;;;5078083;28;20528;-80
2022/08/07 03:05:17;;;;;;;4.63;2.27;;;13.90;99.90;;;;;;5079634;28;20470;-83
2022/08/07 03:07:46;;;;;;;4.70;1.97;;;13.90;99.90;;;;;;5083065;28;20485;-83
2022/08/07 03:10:13;;;;;;;6.43;2.47;;;13.90;99.90;;;;;;5084778;28;20472;-81
2022/08/07 03:12:41;;;;;;;4.17;2.87;;;13.90;99.90;;;;;;5083685;28;20452;-84
2022/08/07 03:15:09;;;;;;;4.33;2.20;;;13.90;99.90;;;;;;5085055;28;20532;-84
2022/08/07 03:17:37;;;;;;;3.07;1.90;;;13.90;99.90;;;;;;5085689;28;20535;-83
2022/08/07 03:20:07;;;;;;;5.43;1.97;;;13.90;99.90;;;;;;5097788;28;20488;-82
2022/08/07 03:22:35;;;;;;;4.10;2.47;;;13.90;99.90;;;;;;5098721;28;20490;-83
2022/08/07 03:25:03;;;;;;;6.80;2.40;;;13.90;99.90;;;;;;5091923;28;20480;-81
2022/08/07 03:27:30;;;;;;;4.10;3.03;;;13.90;99.90;;;;;;5077919;28;21226;-80
2022/08/07 03:29:57;;;;;;;5.20;2.97;;;13.90;99.90;;;;;;5077464;28;20471;-80
2022/08/07 03:32:29;;;;;;;5.20;2.83;;;13.90;99.90;;;;;;5077450;28;20541;-81
2022/08/07 03:35:00;;;;;;;5.27;3.27;;;13.90;99.90;;;;;;5077098;28;20460;-80
2022/08/07 03:37:31;;;;;;;7.47;4.53;;;13.90;99.90;;;;;;5077383;28;20840;-81
2022/08/07 03:39:59;;;;;;;8.40;4.33;;;13.90;99.90;;;;;;5076956;28;20574;-80
2022/08/07 03:42:26;;;;;;;6.60;3.77;;;13.90;99.90;;;;;;5077501;28;20474;-80
2022/08/07 03:44:54;;;;;;;3.60;2.70;;;13.90;99.90;;;;;;5076876;28;20461;-81
2022/08/07 03:47:20;;;;;;;4.07;2.93;;;13.90;99.90;;;;;;5076722;28;20543;-80
2022/08/07 03:49:48;;;;;;;4.33;3.10;;;13.90;99.90;;;;;;5076869;28;20475;-81
2022/08/07 03:52:17;;;;;;;5.53;3.30;;;13.90;99.90;;;;;;5077347;28;20533;-80
2022/08/07 03:54:45;;;;;;;3.77;2.83;;;13.90;99.90;;;;;;5075548;28;20466;-81
2022/08/07 03:57:13;;;;;;;5.87;3.37;;;13.90;99.90;;;;;;5076980;28;20551;-80
2022/08/07 03:59:41;;;;;;;4.60;2.90;;;13.90;99.90;;;;;;5079137;28;20508;-80
2022/08/07 04:02:08;;;;;;;5.87;2.97;;;13.80;99.90;;;;;;5083253;28;20459;-81
2022/08/07 04:04:36;;;;;;;6.43;3.10;;;13.70;99.90;;;;;;5082783;28;20554;-84
2022/08/07 04:07:06;;;;;;;4.57;3.00;;;13.70;99.90;;;;;;5083719;28;21027;-83
2022/08/07 04:09:34;;;;;;;4.10;2.60;;;13.70;99.90;;;;;;5083817;28;20840;-83
2022/08/07 04:12:04;;;;;;;5.17;3.57;;;13.70;99.90;;;;;;5084171;28;20517;-83
2022/08/07 04:14:31;;;;;;;4.43;3.20;;;13.70;99.90;;;;;;5083766;28;20443;-82
2022/08/07 04:16:58;;;;;;;4.70;2.73;;;13.60;99.90;;;;;;5084508;28;20510;-83
2022/08/07 04:19:25;;;;;;;4.97;3.10;;;13.70;99.90;;;;;;5084500;28;20501;-83
2022/08/07 04:21:53;;;;;;;5.40;2.90;;;13.60;99.90;;;;;;5085238;28;20454;-82
2022/08/07 04:24:21;;;;;;;4.53;2.70;;;13.60;99.90;;;;;;5085042;28;21082;-82
2022/08/07 04:26:48;;;;;;;3.73;2.70;;;13.60;99.90;;;;;;5090703;28;20455;-86
2022/08/07 04:29:16;;;;;;;4.10;3.37;;;13.60;99.90;;;;;;5082103;28;20564;-82
2022/08/07 04:31:43;;;;;;;4.13;2.80;;;13.70;99.90;;;;;;5076464;28;20472;-80
2022/08/07 04:34:10;;;;;;;6.83;2.97;;;13.60;99.90;;;;;;5075753;28;20546;-81
2022/08/07 04:36:37;;;;;;;4.27;2.77;;;13.60;99.90;;;;;;5076775;28;20892;-81
2022/08/07 04:39:05;;;;;;;6.00;3.23;;;13.70;99.90;;;;;;5075755;28;20550;-80
2022/08/07 04:41:32;;;;;;;4.70;3.00;;;13.70;99.90;;;;;;5076828;28;20455;-80
2022/08/07 04:44:01;;;;;;;4.20;3.03;;;13.70;99.90;;;;;;5075617;28;20913;-80
2022/08/07 04:46:33;;;;;;;3.40;2.70;;;13.80;99.90;;;;;;5076278;28;21015;-81
2022/08/07 04:49:08;;;;;;;3.93;2.30;;;13.80;99.90;;;;;;5076452;28;20483;-81
2022/08/07 04:51:43;;;;;;;6.57;3.30;;;13.80;99.90;;;;;;5076912;28;20475;-81
2022/08/07 04:54:17;;;;;;;3.70;2.67;;;13.80;99.90;;;;;;5076486;28;20520;-81
2022/08/07 04:56:48;;;;;;;4.80;3.53;;;13.90;99.90;;;;;;5076359;28;20537;-80
2022/08/07 04:59:25;;;;;;;6.37;2.60;;;13.90;99.90;;;;;;5075595;28;20503;-81
2022/08/07 05:02:01;;;;;;;4.30;2.90;;;13.90;99.90;;;;;;5075693;28;20915;-81
2022/08/07 05:04:36;;;;;;;3.07;2.40;;;13.90;99.90;;;;;;5075246;28;20571;-81
2022/08/07 05:07:11;;;;;;;3.50;2.53;;;14.00;99.90;;;;;;5076434;28;20457;-81
2022/08/07 05:09:43;;;;;;;4.10;2.50;;;14.10;99.90;;;;;;5077249;28;20502;-82
2022/08/07 05:12:14;;;;;;;4.50;3.00;;;14.10;99.90;;;;;;5077028;28;20437;-81
2022/08/07 05:14:44;;;;;;;5.40;2.73;;;14.10;99.90;;;;;;5076312;28;20518;-80
2022/08/07 05:17:15;;;;;;;4.43;2.27;;;14.10;99.90;;;;;;5074683;28;20905;-80
2022/08/07 05:19:46;;;;;;;3.87;2.57;;;14.20;99.90;;;;;;5076316;28;20865;-80
2022/08/07 05:22:14;;;;;;;4.70;3.10;;;14.20;99.90;;;;;;5076639;28;20530;-81
2022/08/07 05:24:42;;;;;;;4.77;2.90;;;14.30;99.90;;;;;;5076005;28;20488;-82
2022/08/07 05:27:12;;;;;;;3.00;2.43;;;14.40;99.90;;;;;;5077057;28;20447;-82
2022/08/07 05:29:40;;;;;;;4.70;2.90;;;14.40;99.90;;;;;;5076045;28;20478;-83
2022/08/07 05:32:08;;;;;;;4.47;2.53;;;14.50;99.90;;;;;;5076466;28;20812;-81
2022/08/07 05:34:37;;;;;;;3.60;2.27;;;14.50;99.90;;;;;;5077104;28;20487;-81
2022/08/07 05:37:04;;;;;;;3.70;2.20;;;14.50;99.90;;;;;;5077173;28;20540;-81
2022/08/07 05:39:31;;;;;;;3.00;2.63;;;14.60;99.90;;;;;;5077075;28;20724;-84
2022/08/07 05:41:58;;;;;;;4.60;2.90;;;14.70;99.90;;;;;;5077120;28;20540;-80
2022/08/07 05:44:26;;;;;;;3.90;2.43;;;14.70;99.90;;;;;;5076752;28;20851;-80
2022/08/07 05:46:53;;;;;;;3.53;2.60;;;14.80;99.90;;;;;;5077406;28;20536;-80
2022/08/07 05:49:21;;;;;;;4.30;2.70;;;14.90;99.90;;;;;;5077426;28;20563;-80
2022/08/07 05:51:49;;;;;;;3.30;2.80;;;14.90;99.90;;;;;;5076693;28;20486;-80
2022/08/07 05:54:17;;;;;;;3.37;2.40;;;15.00;99.90;;;;;;5075771;28;20478;-80
2022/08/07 05:56:44;;;;;;;3.60;2.33;;;15.00;99.90;;;;;;5076801;28;20456;-80
2022/08/07 05:59:16;;;;;;;4.20;2.47;;;15.10;99.90;;;;;;5076139;28;20570;-79
2022/08/07 06:01:44;;;;;;;4.30;2.60;;;15.10;99.90;;;;;;5076323;28;20517;-80
2022/08/07 06:04:15;;;;;;;4.50;2.43;;;15.20;99.90;;;;;;5075139;28;20579;-79
2022/08/07 06:06:42;;;;;;;3.13;2.00;;;15.30;99.90;;;;;;5075765;28;20545;-78
2022/08/07 06:09:11;;;;;;;3.90;2.40;;;15.40;99.90;;;;;;5076527;28;20470;-80
2022/08/07 06:11:38;;;;;;;4.07;2.13;;;15.50;99.90;;;;;;5075514;28;20582;-81
2022/08/07 06:14:05;;;;;;;4.20;2.40;;;15.50;99.90;;;;;;5074414;28;20456;-78
2022/08/07 06:16:34;;;;;;;3.60;2.37;;;15.60;99.90;;;;;;5074062;28;20537;-77
2022/08/07 06:19:01;;;;;;;4.13;2.50;;;15.70;99.90;;;;;;5075778;28;20545;-77
2022/08/07 06:21:28;;;;;;;5.30;2.53;;;15.70;99.90;;;;;;5077000;28;20454;-80
2022/08/07 06:23:55;;;;;;;3.70;2.20;;;15.80;99.90;;;;;;5075891;28;20566;-80
2022/08/07 06:26:24;;;;;;;3.80;2.27;;;15.90;99.90;;;;;;5076664;28;20533;-80
2022/08/07 06:28:59;;;;;;;3.30;1.90;;;16.00;99.90;;;;;;5076627;28;20489;-79
2022/08/07 06:31:26;;;;;;;2.90;1.87;;;16.10;99.90;;;;;;5076141;28;20832;-80
2022/08/07 06:33:53;;;;;;;4.90;1.83;;;16.10;99.90;;;;;;5075180;28;20530;-80
2022/08/07 06:36:20;;;;;;;3.00;1.73;;;16.10;99.90;;;;;;5075358;28;20553;-81
2022/08/07 06:38:47;;;;;;;2.87;1.93;;;16.20;99.90;;;;;;5073981;28;20524;-79
2022/08/07 06:41:19;;;;;;;3.63;1.90;;;16.30;99.90;;;;;;5075593;28;20450;-80
2022/08/07 06:43:48;;;;;;;3.50;1.80;;;16.40;99.90;;;;;;5078103;28;20572;-81
2022/08/07 06:46:15;;;;;;;3.53;2.20;;;16.50;99.90;;;;;;5084464;28;20443;-80
2022/08/07 06:48:43;;;;;;;2.00;1.10;;;16.60;99.90;;;;;;5098310;28;20458;-78
2022/08/07 06:51:15;;;;;;;2.57;1.43;;;16.60;99.90;;;;;;5098579;28;20902;-80
2022/08/07 06:53:43;;;;;;;2.77;1.60;;;16.70;99.90;;;;;;5084974;28;20946;-79
2022/08/07 06:56:16;;;;;;;2.93;1.30;;;16.80;99.90;;;;;;5070457;28;20574;-78
2022/08/07 06:58:48;;;;;;;3.23;1.37;;;16.80;99.90;;;;;;5066051;28;20462;-78
2022/08/07 07:01:16;;;;;;;2.40;1.40;;;16.90;99.90;;;;;;5068873;28;20798;-77
2022/08/07 07:03:43;;;;;;;1.90;1.20;;;17.00;99.90;;;;;;5067171;28;20541;-80
2022/08/07 07:06:10;;;;;;;2.20;1.20;;;17.10;99.90;;;;;;5070196;28;20514;-79
2022/08/07 07:08:37;;;;;;;2.83;1.23;;;17.20;99.90;;;;;;5066899;28;20467;-78
2022/08/07 07:11:05;;;;;;;3.00;1.30;;;17.20;99.90;;;;;;5067013;28;20545;-79
2022/08/07 07:13:36;;;;;;;3.73;1.27;;;17.30;99.90;;;;;;5067899;28;20484;-77
2022/08/07 07:16:11;;;;;;;2.17;1.10;;;17.40;99.90;;;;;;5067172;28;20456;-79
2022/08/07 07:18:43;;;;;;;4.00;1.33;;;17.50;99.90;;;;;;5067471;28;20508;-78
2022/08/07 07:21:14;;;;;;;2.33;1.27;;;17.60;99.90;;;;;;5068310;28;20541;-79
2022/08/07 07:23:41;;;;;;;2.17;1.00;;;17.70;99.90;;;;;;5064824;28;20571;-77
2022/08/07 07:26:13;;;;;;;3.10;1.10;;;17.80;99.90;;;;;;5068733;28;20530;-80
2022/08/07 07:28:45;;;;;;;2.80;0.83;;;17.90;99.90;;;;;;5072586;28;20923;-77
2022/08/07 07:31:21;;;;;;;2.13;1.30;;;17.90;99.90;;;;;;5067802;28;20433;-78
2022/08/07 07:33:51;;;;;;;3.50;1.37;;;18.00;99.90;;;;;;5066938;28;20527;-81
2022/08/07 07:36:20;;;;;;;1.93;1.03;;;18.10;99.90;;;;;;5067559;28;20555;-80
2022/08/07 07:38:48;;;;;;;2.20;0.90;;;18.20;99.90;;;;;;5072222;28;22100;-79
2022/08/07 07:41:18;;;;;;;4.33;1.20;;;18.30;99.90;;;;;;5071340;28;20540;-79
2022/08/07 07:43:52;;;;;;;2.03;0.97;;;18.40;99.90;;;;;;5069470;28;20483;-78
2022/08/07 07:46:22;;;;;;;2.87;0.97;;;18.50;99.90;;;;;;5076944;28;21002;-80
2022/08/07 07:48:50;;;;;;;2.33;0.97;;;18.60;99.90;;;;;;5058412;28;20471;-79
2022/08/07 07:51:18;;;;;;;3.77;1.17;;;18.70;99.90;;;;;;5064667;28;20525;-78
2022/08/07 07:53:46;;;;;;;2.80;1.17;;;18.80;99.90;;;;;;5076486;28;20442;-80
2022/08/07 07:56:15;;;;;;;3.43;1.30;;;18.90;99.90;;;;;;5057261;28;20541;-79
2022/08/07 07:58:43;;;;;;;2.80;1.10;;;19.00;99.90;;;;;;5068881;28;20599;-78
2022/08/07 08:01:15;;;;;;;3.23;0.97;;;19.10;99.90;;;;;;5069252;28;20447;-78
2022/08/07 08:03:44;;;;;;;4.67;1.63;;;19.20;99.90;;;;;;5075268;28;20545;-80
2022/08/07 08:06:13;;;;;;;2.87;1.10;;;19.30;99.90;;;;;;5071192;28;20467;-80
2022/08/07 08:08:41;;;;;;;3.50;0.97;;;19.40;99.90;;;;;;5060793;28;20512;-78
2022/08/07 08:11:10;;;;;;;2.10;0.80;;;19.40;99.90;;;;;;5057068;28;20487;-78
2022/08/07 08:13:41;;;;;;;2.87;0.97;;;19.60;99.90;;;;;;5056464;28;20490;-78
2022/08/07 08:16:09;;;;;;;3.43;0.90;;;19.80;99.90;;;;;;5060594;28;20484;-79
2022/08/07 08:18:37;;;;;;;3.13;1.10;;;19.90;99.90;;;;;;5063247;28;20483;-79
2022/08/07 08:27:03;;;;;;;3.93;0.80;;;20.10;99.90;;;;;;5063219;28;20456;-79
2022/08/07 08:29:31;;;;;;;1.80;0.70;;;20.50;99.90;;;;;;5077118;28;20839;-80
2022/08/07 08:32:00;;;;;;;1.90;0.70;;;20.70;99.90;;;;;;5063749;28;20852;-82
2022/08/07 08:34:28;;;;;;;2.00;0.80;;;20.90;99.90;;;;;;5075125;28;20490;-81
2022/08/07 08:36:57;;;;;;;1.80;0.90;;;21.00;99.90;;;;;;5072243;28;20483;-78
2022/08/07 08:39:26;;;;;;;3.50;0.90;;;21.20;99.90;;;;;;5074414;28;20471;-79
2022/08/07 08:41:59;;;;;;;2.83;0.80;;;21.40;99.90;;;;;;5072577;28;20893;-81
2022/08/07 08:44:35;;;;;;;2.30;0.80;;;21.50;99.90;;;;;;5063578;28;20569;-81
2022/08/07 08:47:07;;;;;;;2.93;1.00;;;21.70;99.90;;;;;;5078085;28;20515;-80
2022/08/07 08:49:46;;;;;;;1.67;0.60;;;21.90;99.90;;;;;;5077847;28;20478;-78
2022/08/07 08:52:21;;;;;;;2.03;0.60;;;22.10;99.90;;;;;;5076812;28;20915;-79
2022/08/07 08:54:58;;;;;;;2.03;0.70;;;22.30;99.90;;;;;;5075457;28;20791;-79
2022/08/07 08:57:37;;;;;;;2.63;0.70;;;22.60;99.90;;;;;;5072798;28;20519;-81
2022/08/07 09:00:07;;;;;;;2.83;0.93;;;22.80;99.90;;;;;;5068911;28;20555;-80
2022/08/07 09:02:51;;;;;;;2.10;0.70;;;23.00;99.90;;;;;;5071573;28;20978;-79
2022/08/07 09:05:34;;;;;;;1.70;0.70;;;23.30;99.90;;;;;;5065942;28;20939;-84
2022/08/07 09:08:17;;;;;;;2.47;0.80;;;23.50;99.90;;;;;;5073743;28;20538;-85
2022/08/07 09:10:52;;;;;;;2.57;0.73;;;23.40;99.90;;;;;;5075437;28;20985;-84
2022/08/07 09:13:29;;;;;;;3.50;0.70;;;23.60;99.90;;;;;;5072662;28;20458;-84
2022/08/07 09:16:03;;;;;;;3.90;1.00;;;23.80;99.90;;;;;;5075976;28;20423;-85
2022/08/07 09:18:50;;;;;;;1.77;0.70;;;24.00;99.90;;;;;;5077695;28;20594;-85
2022/08/07 09:21:28;;;;;;;2.23;0.70;;;24.10;99.90;;;;;;5079273;28;20511;-84
2022/08/07 09:24:03;;;;;;;1.70;0.70;;;24.20;99.90;;;;;;5076998;28;20441;-81
2022/08/07 09:26:39;;;;;;;2.40;0.80;;;24.40;99.90;;;;;;5074401;28;20510;-81
2022/08/07 09:29:17;;;;;;;2.50;0.70;;;24.50;99.90;;;;;;5063046;28;20507;-79
2022/08/07 09:32:02;;;;;;;1.97;0.80;;;24.60;99.90;;;;;;5069322;28;20929;-79
2022/08/07 09:34:36;;;;;;;2.33;0.70;;;24.80;99.90;;;;;;5072315;28;20458;-79
2022/08/07 09:37:12;;;;;;;2.00;0.70;;;24.90;99.90;;;;;;5066926;28;20551;-82
2022/08/07 09:39:48;;;;;;;2.10;0.60;;;24.70;99.90;;;;;;5070840;28;20817;-82
2022/08/07 09:42:28;;;;;;;3.00;0.70;;;24.90;99.90;;;;;;5066863;28;20446;-81
2022/08/07 09:45:09;;;;;;;2.20;0.80;;;25.00;99.90;;;;;;5067633;28;20486;-83
2022/08/07 09:47:48;;;;;;;3.53;0.70;;;25.20;99.90;;;;;;5061944;28;20447;-79
2022/08/07 09:50:26;;;;;;;1.80;0.60;;;25.20;99.90;;;;;;5068620;28;20471;-80
2022/08/07 09:53:01;;;;;;;2.07;0.67;;;25.30;99.90;;;;;;5069934;28;20549;-83
2022/08/07 09:55:43;;;;;;;2.00;0.70;;;25.40;99.90;;;;;;5069003;28;20446;-81
2022/08/07 09:58:34;;;;;;;1.83;0.70;;;25.60;99.90;;;;;;5067449;28;20511;-78
2022/08/07 10:01:09;;;;;;;2.00;0.77;;;25.60;99.90;;;;;;5067037;28;20539;-78
2022/08/07 10:04:09;;;;;;;2.50;0.80;;;25.80;99.90;;;;;;5065382;28;20454;-78
2022/08/07 10:07:13;;;;;;;2.60;0.80;;;25.30;99.90;;;;;;5070897;28;20479;-81
2022/08/07 10:10:01;;;;;;;1.80;0.63;;;25.60;99.90;;;;;;5059220;28;20474;-81
2022/08/07 10:12:47;;;;;;;1.70;0.63;;;25.90;99.90;;;;;;5077008;28;20475;-83
2022/08/07 10:15:43;;;;;;;2.00;0.80;;;25.90;99.90;;;;;;5073840;28;20443;-82
2022/08/07 10:18:31;;;;;;;2.83;0.97;;;25.70;99.90;;;;;;5077632;28;20478;-80
2022/08/07 10:21:21;;;;;;;3.40;0.90;;;25.70;99.90;;;;;;5068460;28;20553;-80
2022/08/07 10:24:02;;;;;;;4.13;0.80;;;25.70;99.90;;;;;;5073634;28;20522;-79
2022/08/07 10:26:51;;;;;;;1.80;0.60;;;25.60;99.90;;;;;;5060822;28;20514;-81
2022/08/07 10:29:31;;;;;;;2.30;0.90;;;25.80;99.90;;;;;;5071185;28;21048;-80
2022/08/07 10:32:15;;;;;;;3.40;0.80;;;26.20;99.90;;;;;;5068345;28;20520;-78
2022/08/07 10:34:54;;;;;;;2.23;0.70;;;26.50;99.90;;;;;;5073401;28;20517;-79
2022/08/07 10:37:31;;;;;;;1.77;0.67;;;26.70;99.90;;;;;;5062239;28;20511;-77
2022/08/07 10:40:03;;;;;;;4.13;0.70;;;26.70;99.90;;;;;;5073617;28;20574;-80
2022/08/07 10:42:36;;;;;;;2.20;0.70;;;26.70;99.90;;;;;;5070236;28;20459;-78
2022/08/07 10:45:15;;;;;;;2.20;0.70;;;26.80;99.90;;;;;;5073151;28;21220;-81
2022/08/07 10:47:50;;;;;;;2.60;0.90;;;27.00;99.90;;;;;;5069502;28;20454;-79
2022/08/07 10:50:23;;;;;;;1.70;0.70;;;27.00;99.90;;;;;;5073956;28;20493;-78
2022/08/07 10:53:01;;;;;;;2.63;0.80;;;27.00;99.90;;;;;;5073051;28;20799;-78
2022/08/07 10:55:45;;;;;;;1.70;0.70;;;27.00;99.90;;;;;;5070966;28;20454;-80
2022/08/07 10:58:20;;;;;;;1.70;0.70;;;27.30;99.90;;;;;;5054858;28;20531;-79
2022/08/07 11:00:57;;;;;;;2.00;0.60;;;27.60;99.90;;;;;;5055560;28;20553;-78
2022/08/07 11:03:38;;;;;;;2.00;0.87;;;27.60;99.90;;;;;;5066046;28;20473;-79
2022/08/07 11:06:13;;;;;;;2.47;0.70;;;27.60;99.90;;;;;;5072868;28;20486;-80
2022/08/07 11:08:48;;;;;;;3.10;0.70;;;27.60;99.70;;;;;;5070421;28;20936;-81
2022/08/07 11:11:24;;;;;;;4.03;1.00;;;27.90;99.90;;;;;;5060791;28;20889;-79
2022/08/07 11:13:55;;;;;;;3.33;0.80;;;27.80;98.10;;;;;;5064716;28;20504;-78
2022/08/07 11:16:31;;;;;;;3.70;0.70;;;27.90;99.90;;;;;;5074061;28;20446;-79
2022/08/07 11:19:05;;;;;;;1.80;0.73;;;27.90;99.90;;;;;;5073134;28;20554;-81
2022/08/07 11:21:45;;;;;;;2.37;0.83;;;28.10;99.90;;;;;;5062380;28;20478;-80
2022/08/07 11:24:18;;;;;;;2.30;0.70;;;28.20;99.90;;;;;;5060351;28;20887;-82
2022/08/07 11:26:52;;;;;;;2.50;0.70;;;28.30;99.90;;;;;;5073853;28;20493;-81
2022/08/07 11:29:26;;;;;;;2.20;0.90;;;28.30;99.90;;;;;;5068086;28;20481;-82
2022/08/07 11:32:01;;;;;;;1.80;0.70;;;28.20;99.90;;;;;;5072271;28;20458;-80
2022/08/07 11:34:36;;;;;;;1.90;0.80;;;28.30;98.90;;;;;;5084522;22;20592;-79
2022/08/07 11:37:16;;;;;;;2.60;0.93;;;28.50;94.60;;;;;;5045463;28;20815;-79
2022/08/07 11:39:58;;;;;;;2.67;1.07;;;28.80;99.90;;;;;;5033491;28;20523;-79
2022/08/07 11:42:36;;;;;;;2.13;0.80;;;28.90;99.90;;;;;;5033794;28;20437;-79
2022/08/07 11:45:15;;;;;;;1.70;0.70;;;28.70;99.90;;;;;;5033794;28;20587;-79
2022/08/07 11:47:57;;;;;;;2.10;0.77;;;28.70;97.40;;;;;;5041111;28;20531;-79
2022/08/07 11:50:37;;;;;;;1.83;0.90;;;28.60;87.30;;;;;;5055853;28;20538;-79
2022/08/07 11:53:15;;;;;;;2.30;0.73;;;29.10;94.80;;;;;;5056919;28;20543;-79
2022/08/07 11:56:10;;;;;;;2.20;0.80;;;29.10;87.10;;;;;;5057891;28;20438;-80
2022/08/07 11:58:48;;;;;;;2.10;0.80;;;29.30;94.50;;;;;;5063270;28;20452;-79
2022/08/07 12:01:37;;;;;;;2.73;0.80;;;29.20;95.50;;;;;;5067431;28;20436;-78
2022/08/07 12:04:21;;;;;;;2.50;0.80;;;29.70;96.00;;;;;;5067110;28;20491;-79
2022/08/07 12:06:53;;;;;;;2.93;0.60;;;29.70;92.80;;;;;;5060206;28;20515;-78
2022/08/07 12:09:25;;;;;;;3.03;0.73;;;30.00;94.80;;;;;;5059413;28;20495;-79
2022/08/07 12:12:04;;;;;;;2.20;0.80;;;30.00;87.70;;;;;;5055021;28;20456;-78
2022/08/07 12:14:38;;;;;;;2.40;0.80;;;30.00;96.50;;;;;;5054439;28;20499;-80
2022/08/07 12:17:11;;;;;;;2.53;0.77;;;30.00;94.80;;;;;;5053672;28;20452;-80
2022/08/07 12:19:46;;;;;;;2.53;0.80;;;30.90;89.80;;;;;;5063469;28;20888;-80
2022/08/07 12:22:21;;;;;;;2.33;0.80;;;30.80;90.40;;;;;;5045448;28;20945;-81
2022/08/07 12:27:49;;;;;;;2.10;1.00;;;30.10;83.60;;;;;;5061873;28;20495;-79
2022/08/07 12:30:18;;;;;;;1.80;0.80;;;30.40;91.80;;;;;;5061279;28;20452;-80
2022/08/07 12:33:04;;;;;;;2.63;0.90;;;30.60;89.80;;;;;;5063345;28;20535;-80
2022/08/07 12:35:34;;;;;;;2.03;0.90;;;30.40;83.10;;;;;;5063044;28;20463;-79
2022/08/07 12:38:02;;;;;;;2.57;0.80;;;30.40;88.50;;;;;;5066537;28;20853;-80
2022/08/07 12:40:33;;;;;;;2.03;0.80;;;31.00;84.50;;;;;;5067230;28;20965;-80
2022/08/07 12:43:03;;;;;;;3.00;0.80;;;30.80;66.50;;;;;;5066095;28;20464;-80
2022/08/07 12:45:37;;;;;;;4.30;0.90;;;30.60;73.50;;;;;;5065223;28;20511;-80
2022/08/07 12:48:11;;;;;;;2.77;0.77;;;30.70;91.30;;;;;;5065031;28;20472;-81
2022/08/07 12:50:48;;;;;;;2.67;0.80;;;30.90;89.80;;;;;;5058081;28;20578;-80
2022/08/07 12:53:26;;;;;;;2.73;0.90;;;30.90;82.40;;;;;;5051911;28;20544;-80
2022/08/07 12:56:08;;;;;;;2.87;0.90;;;30.80;75.00;;;;;;5061614;28;20473;-79
2022/08/07 12:58:39;;;;;;;1.87;0.80;;;30.80;78.50;;;;;;5059368;28;20455;-80
2022/08/07 13:01:16;;;;;;;2.20;0.80;;;30.90;87.70;;;;;;5061207;28;20462;-80
2022/08/07 13:03:57;;;;;;;3.20;0.80;;;31.00;91.40;;;;;;5056756;28;20566;-80
2022/08/07 13:06:52;;;;;;;2.23;0.83;;;30.80;81.10;;;;;;5054724;28;20471;-80
2022/08/07 13:09:30;;;;;;;4.20;1.00;;;30.80;88.00;;;;;;5042695;28;20444;-78
2022/08/07 13:12:07;;;;;;;4.13;0.70;;;31.00;70.40;;;;;;5063339;28;20491;-79
2022/08/07 13:14:48;;;;;;;2.23;0.80;;;30.60;65.50;;;;;;5058586;28;20545;-79
2022/08/07 13:17:23;;;;;;;2.00;0.70;;;30.80;81.40;;;;;;5058671;28;20476;-78
2022/08/07 13:20:00;;;;;;;2.07;0.80;;;30.80;74.50;;;;;;5056533;28;20484;-79
2022/08/07 13:22:35;;;;;;;1.90;0.70;;;31.20;83.60;;;;;;5059104;28;20455;-80